createdAt,value
2018-09-13T00:00:08.661Z,0.00
2018-09-13T00:01:08.686Z,0.00
2018-09-13T00:02:08.706Z,0.00
2018-09-13T00:03:08.768Z,0.00
2018-09-13T00:04:08.752Z,0.00
2018-09-13T00:05:08.774Z,0.00
2018-09-13T00:06:08.800Z,0.00
2018-09-13T00:07:08.830Z,0.00
2018-09-13T00:08:08.852Z,0.00
2018-09-13T00:09:08.871Z,0.00
2018-09-13T00:10:08.898Z,0.00
2018-09-13T00:11:08.919Z,0.00
2018-09-13T00:12:08.944Z,0.00
2018-09-13T00:13:08.968Z,0.00
2018-09-13T00:14:08.990Z,0.00
2018-09-13T00:15:09.014Z,0.00
2018-09-13T00:16:09.038Z,0.00
2018-09-13T00:17:09.060Z,0.00
2018-09-13T00:18:09.086Z,0.00
2018-09-13T00:19:09.111Z,0.00
2018-09-13T00:20:09.133Z,0.00
2018-09-13T00:21:09.157Z,0.00
2018-09-13T00:22:09.186Z,0.00
2018-09-13T00:23:09.204Z,0.00
2018-09-13T00:24:09.225Z,0.00
2018-09-13T00:25:09.251Z,0.00
2018-09-13T00:26:09.281Z,0.00
2018-09-13T00:27:09.298Z,0.00
2018-09-13T00:28:09.322Z,0.00
2018-09-13T00:29:09.351Z,0.00
2018-09-13T00:30:09.369Z,0.00
2018-09-13T00:31:09.394Z,0.00
2018-09-13T00:32:09.422Z,0.00
2018-09-13T00:33:09.442Z,0.00
2018-09-13T00:34:09.465Z,0.00
2018-09-13T00:35:09.489Z,0.00
2018-09-13T00:36:09.518Z,0.00
2018-09-13T00:37:09.536Z,0.00
2018-09-13T00:38:09.561Z,0.00
2018-09-13T00:39:09.583Z,0.00
2018-09-13T00:40:09.608Z,0.00
2018-09-13T00:41:09.680Z,0.00
2018-09-13T00:42:09.655Z,0.00
2018-09-13T00:43:09.677Z,0.00
2018-09-13T00:44:09.704Z,0.00
2018-09-13T00:45:09.725Z,0.00
2018-09-13T00:46:09.754Z,0.00
2018-09-13T00:47:09.773Z,0.00
2018-09-13T00:48:09.797Z,0.00
2018-09-13T00:49:09.820Z,0.00
2018-09-13T00:50:09.851Z,0.00
2018-09-13T00:51:09.867Z,0.00
2018-09-13T00:52:09.891Z,0.00
2018-09-13T00:53:09.918Z,0.00
2018-09-13T00:54:09.939Z,0.00
2018-09-13T00:55:09.967Z,0.00
2018-09-13T00:56:09.988Z,0.00
2018-09-13T00:57:10.009Z,0.00
2018-09-13T00:58:10.034Z,0.00
2018-09-13T00:59:10.059Z,0.00
2018-09-13T01:00:10.079Z,0.00
2018-09-13T01:01:10.105Z,0.00
2018-09-13T01:02:10.130Z,0.00
2018-09-13T01:03:10.150Z,0.00
2018-09-13T01:04:10.179Z,0.00
2018-09-13T01:05:10.202Z,0.00
2018-09-13T01:06:10.223Z,0.00
2018-09-13T01:07:10.248Z,0.00
2018-09-13T01:08:10.279Z,0.00
2018-09-13T01:09:10.294Z,0.00
2018-09-13T01:10:10.317Z,0.00
2018-09-13T01:11:10.341Z,0.00
2018-09-13T01:12:10.363Z,0.00
2018-09-13T01:13:10.392Z,0.00
2018-09-13T01:14:10.412Z,0.00
2018-09-13T01:15:10.438Z,0.00
2018-09-13T01:16:10.460Z,0.00
2018-09-13T01:17:10.483Z,0.00
2018-09-13T01:18:10.507Z,0.00
2018-09-13T01:19:10.531Z,0.00
2018-09-13T01:20:10.557Z,0.00
2018-09-13T01:21:10.578Z,0.00
2018-09-13T01:22:10.602Z,0.00
2018-09-13T01:23:10.627Z,0.00
2018-09-13T01:24:10.651Z,0.00
2018-09-13T01:25:10.674Z,0.00
2018-09-13T01:26:10.696Z,0.00
2018-09-13T01:27:10.723Z,0.00
2018-09-13T01:28:10.746Z,0.00
2018-09-13T01:29:10.769Z,0.00
2018-09-13T01:30:10.794Z,0.00
2018-09-13T01:31:10.817Z,0.00
2018-09-13T01:32:10.838Z,0.00
2018-09-13T01:33:10.860Z,0.00
2018-09-13T01:34:10.889Z,0.00
2018-09-13T01:35:10.911Z,0.00
2018-09-13T01:36:10.933Z,0.00
2018-09-13T01:37:10.960Z,0.00
2018-09-13T01:38:10.981Z,0.00
2018-09-13T01:39:11.004Z,0.00
2018-09-13T01:40:11.028Z,0.00
2018-09-13T01:41:11.052Z,0.00
2018-09-13T01:42:11.075Z,0.00
2018-09-13T01:43:11.100Z,0.00
2018-09-13T01:44:11.122Z,0.00
2018-09-13T01:45:11.145Z,0.00
2018-09-13T01:46:11.171Z,0.00
2018-09-13T01:47:11.194Z,0.00
2018-09-13T01:48:11.218Z,0.00
2018-09-13T01:49:11.241Z,0.00
2018-09-13T01:50:11.268Z,0.00
2018-09-13T01:51:11.289Z,0.00
2018-09-13T01:52:11.313Z,0.00
2018-09-13T01:53:11.336Z,0.00
2018-09-13T01:54:11.360Z,0.00
2018-09-13T01:55:11.383Z,0.00
2018-09-13T01:56:11.408Z,0.00
2018-09-13T01:57:11.432Z,0.00
2018-09-13T01:58:11.455Z,0.00
2018-09-13T01:59:11.479Z,0.00
2018-09-13T02:00:11.502Z,0.00
2018-09-13T02:01:11.526Z,0.00
2018-09-13T02:02:11.549Z,0.00
2018-09-13T02:03:11.576Z,0.00
2018-09-13T02:04:11.596Z,0.00
2018-09-13T02:05:11.621Z,0.00
2018-09-13T02:06:11.647Z,0.00
2018-09-13T02:07:11.667Z,0.00
2018-09-13T02:08:11.691Z,0.00
2018-09-13T02:09:11.718Z,0.00
2018-09-13T02:10:11.739Z,0.00
2018-09-13T02:11:11.764Z,0.00
2018-09-13T02:12:11.790Z,0.00
2018-09-13T02:13:11.809Z,0.00
2018-09-13T02:14:11.833Z,0.00
2018-09-13T02:15:11.860Z,0.00
2018-09-13T02:16:11.880Z,0.00
2018-09-13T02:17:11.903Z,0.00
2018-09-13T02:18:11.927Z,0.00
2018-09-13T02:19:11.952Z,0.00
2018-09-13T02:20:11.976Z,0.00
2018-09-13T02:21:11.998Z,0.00
2018-09-13T02:22:12.024Z,0.00
2018-09-13T02:23:12.047Z,0.00
2018-09-13T02:24:12.069Z,0.00
2018-09-13T02:25:12.098Z,0.00
2018-09-13T02:26:12.118Z,0.00
2018-09-13T02:27:12.140Z,0.00
2018-09-13T02:28:12.165Z,0.00
2018-09-13T02:29:12.188Z,0.00
2018-09-13T02:30:12.214Z,0.00
2018-09-13T02:31:12.236Z,0.00
2018-09-13T02:32:12.261Z,0.00
2018-09-13T02:33:12.284Z,0.00
2018-09-13T02:34:12.306Z,0.00
2018-09-13T02:35:12.330Z,0.00
2018-09-13T02:36:12.353Z,0.00
2018-09-13T02:37:12.376Z,0.00
2018-09-13T02:38:12.405Z,0.00
2018-09-13T02:39:12.425Z,0.00
2018-09-13T02:40:12.450Z,0.00
2018-09-13T02:41:12.472Z,0.00
2018-09-13T02:42:12.496Z,0.00
2018-09-13T02:43:12.525Z,0.00
2018-09-13T02:44:12.541Z,0.00
2018-09-13T02:45:12.568Z,0.00
2018-09-13T02:46:12.595Z,0.00
2018-09-13T02:47:12.614Z,0.00
2018-09-13T02:48:12.640Z,0.00
2018-09-13T02:49:12.718Z,0.00
2018-09-13T02:50:12.683Z,0.00
2018-09-13T02:51:12.709Z,0.00
2018-09-13T02:52:12.729Z,0.00
2018-09-13T02:53:12.756Z,0.00
2018-09-13T02:54:12.783Z,0.00
2018-09-13T02:55:12.813Z,0.00
2018-09-13T02:56:12.824Z,0.00
2018-09-13T02:57:12.852Z,0.00
2018-09-13T02:58:12.873Z,0.00
2018-09-13T02:59:12.899Z,0.00
2018-09-13T03:00:12.923Z,0.00
2018-09-13T03:01:12.945Z,0.00
2018-09-13T03:02:12.970Z,0.00
2018-09-13T03:03:12.994Z,0.00
2018-09-13T03:04:13.016Z,0.00
2018-09-13T03:05:13.039Z,0.00
2018-09-13T03:06:13.064Z,0.00
2018-09-13T03:07:13.087Z,0.00
2018-09-13T03:08:13.145Z,0.00
2018-09-13T03:09:13.136Z,0.00
2018-09-13T03:10:13.159Z,0.00
2018-09-13T03:11:13.182Z,0.00
2018-09-13T03:12:13.205Z,0.00
2018-09-13T03:13:13.228Z,0.00
2018-09-13T03:14:13.255Z,0.00
2018-09-13T03:15:13.276Z,0.00
2018-09-13T03:16:13.300Z,0.00
2018-09-13T03:17:13.323Z,0.00
2018-09-13T03:18:13.348Z,0.00
2018-09-13T03:19:13.370Z,0.00
2018-09-13T03:20:13.393Z,0.00
2018-09-13T03:21:13.416Z,0.00
2018-09-13T03:22:13.442Z,0.00
2018-09-13T03:23:13.465Z,0.00
2018-09-13T03:24:13.486Z,0.00
2018-09-13T03:25:13.514Z,0.00
2018-09-13T03:26:13.536Z,0.00
2018-09-13T03:27:13.560Z,0.00
2018-09-13T03:28:13.590Z,0.00
2018-09-13T03:29:13.606Z,0.00
2018-09-13T03:30:13.631Z,0.00
2018-09-13T03:31:13.663Z,0.00
2018-09-13T03:32:13.679Z,0.00
2018-09-13T03:33:13.701Z,0.00
2018-09-13T03:34:13.735Z,0.00
2018-09-13T03:35:13.750Z,0.00
2018-09-13T03:36:13.771Z,0.00
2018-09-13T03:37:13.796Z,0.00
2018-09-13T03:38:13.819Z,0.00
2018-09-13T03:39:13.843Z,0.00
2018-09-13T03:40:13.867Z,0.00
2018-09-13T03:41:13.893Z,0.00
2018-09-13T03:42:13.914Z,0.00
2018-09-13T03:43:13.939Z,0.00
2018-09-13T03:44:13.961Z,0.00
2018-09-13T03:45:13.988Z,0.00
2018-09-13T03:46:14.014Z,0.00
2018-09-13T03:47:14.035Z,0.00
2018-09-13T03:48:14.056Z,0.00
2018-09-13T03:49:14.080Z,0.00
2018-09-13T03:50:14.104Z,0.00
2018-09-13T03:51:14.134Z,0.00
2018-09-13T03:52:14.150Z,0.00
2018-09-13T03:53:14.182Z,0.00
2018-09-13T03:54:14.200Z,0.00
2018-09-13T03:55:14.222Z,0.00
2018-09-13T03:56:14.246Z,0.00
2018-09-13T03:57:14.270Z,0.00
2018-09-13T03:58:14.294Z,0.00
2018-09-13T03:59:14.322Z,0.00
2018-09-13T04:00:14.341Z,0.00
2018-09-13T04:01:14.366Z,0.00
2018-09-13T04:02:14.388Z,0.00
2018-09-13T04:03:14.468Z,0.00
2018-09-13T04:04:14.438Z,0.00
2018-09-13T04:05:14.463Z,0.00
2018-09-13T04:06:14.483Z,0.00
2018-09-13T04:07:14.509Z,0.00
2018-09-13T04:08:14.534Z,0.00
2018-09-13T04:09:14.566Z,0.00
2018-09-13T04:10:14.578Z,0.00
2018-09-13T04:11:14.599Z,0.00
2018-09-13T04:12:14.624Z,0.00
2018-09-13T04:13:14.652Z,0.00
2018-09-13T04:14:14.672Z,0.00
2018-09-13T04:15:14.707Z,0.00
2018-09-13T04:16:14.721Z,0.00
2018-09-13T04:17:14.742Z,0.00
2018-09-13T04:18:14.772Z,0.00
2018-09-13T04:19:14.791Z,0.00
2018-09-13T04:20:14.813Z,0.00
2018-09-13T04:21:14.840Z,0.00
2018-09-13T04:22:14.864Z,0.00
2018-09-13T04:23:14.884Z,0.00
2018-09-13T04:24:14.909Z,0.00
2018-09-13T04:25:14.949Z,0.00
2018-09-13T04:26:14.957Z,0.00
2018-09-13T04:27:14.980Z,0.00
2018-09-13T04:28:15.005Z,4.00
2018-09-13T04:29:15.029Z,4.00
2018-09-13T04:30:15.053Z,0.00
2018-09-13T04:31:15.075Z,4.00
2018-09-13T04:32:15.100Z,4.00
2018-09-13T04:33:15.124Z,4.00
2018-09-13T04:34:15.146Z,4.00
2018-09-13T04:35:15.171Z,8.00
2018-09-13T04:36:15.194Z,8.00
2018-09-13T04:37:15.219Z,8.00
2018-09-13T04:38:15.241Z,12.00
2018-09-13T04:39:15.266Z,12.00
2018-09-13T04:40:15.289Z,12.00
2018-09-13T04:41:15.313Z,16.00
2018-09-13T04:42:15.336Z,16.00
2018-09-13T04:43:15.360Z,24.00
2018-09-13T04:44:15.384Z,24.00
2018-09-13T04:45:15.410Z,28.00
2018-09-13T04:46:15.437Z,28.00
2018-09-13T04:47:15.456Z,32.00
2018-09-13T04:48:15.495Z,36.00
2018-09-13T04:49:15.543Z,40.00
2018-09-13T04:50:15.526Z,44.00
2018-09-13T04:51:15.550Z,44.00
2018-09-13T04:52:15.576Z,48.00
2018-09-13T04:53:15.599Z,48.00
2018-09-13T04:54:15.621Z,52.00
2018-09-13T04:55:15.646Z,52.00
2018-09-13T04:56:15.670Z,52.00
2018-09-13T04:57:15.692Z,56.00
2018-09-13T04:58:15.716Z,60.00
2018-09-13T04:59:15.741Z,60.00
2018-09-13T05:00:15.807Z,64.00
2018-09-13T05:01:15.788Z,68.00
2018-09-13T05:02:15.813Z,76.00
2018-09-13T05:03:15.835Z,80.00
2018-09-13T05:04:15.859Z,88.00
2018-09-13T05:05:15.881Z,92.00
2018-09-13T05:06:15.908Z,96.00
2018-09-13T05:07:15.939Z,104.00
2018-09-13T05:08:15.954Z,108.00
2018-09-13T05:09:15.977Z,116.00
2018-09-13T05:10:16.006Z,124.00
2018-09-13T05:11:16.023Z,132.00
2018-09-13T05:12:16.049Z,140.00
2018-09-13T05:13:16.072Z,148.00
2018-09-13T05:14:16.097Z,152.00
2018-09-13T05:15:16.121Z,160.00
2018-09-13T05:16:16.144Z,168.00
2018-09-13T05:17:16.169Z,176.00
2018-09-13T05:18:16.193Z,184.00
2018-09-13T05:19:16.216Z,196.00
2018-09-13T05:20:16.238Z,204.00
2018-09-13T05:21:16.263Z,216.00
2018-09-13T05:22:16.285Z,228.00
2018-09-13T05:23:16.309Z,244.00
2018-09-13T05:24:16.360Z,260.00
2018-09-13T05:25:16.361Z,276.00
2018-09-13T05:26:16.382Z,296.00
2018-09-13T05:27:16.405Z,320.00
2018-09-13T05:28:16.429Z,360.00
2018-09-13T05:29:16.452Z,400.00
2018-09-13T05:30:16.478Z,444.00
2018-09-13T05:31:16.500Z,488.00
2018-09-13T05:32:16.524Z,540.00
2018-09-13T05:33:16.548Z,588.00
2018-09-13T05:34:16.574Z,636.00
2018-09-13T05:35:16.596Z,720.00
2018-09-13T05:36:16.622Z,812.00
2018-09-13T05:37:16.644Z,1516.00
2018-09-13T05:38:16.667Z,2004.00
2018-09-13T05:39:16.692Z,2168.00
2018-09-13T05:40:16.714Z,2828.00
2018-09-13T05:41:16.740Z,3460.00
2018-09-13T05:42:16.761Z,3076.00
2018-09-13T05:43:16.788Z,2840.00
2018-09-13T05:44:16.809Z,1960.00
2018-09-13T05:45:16.833Z,1612.00
2018-09-13T05:46:16.858Z,1384.00
2018-09-13T05:47:16.882Z,1404.00
2018-09-13T05:48:16.905Z,1524.00
2018-09-13T05:49:16.933Z,1556.00
2018-09-13T05:50:16.953Z,1724.00
2018-09-13T05:51:17.079Z,2216.00
2018-09-13T05:52:17.001Z,1632.00
2018-09-13T05:53:17.026Z,1396.00
2018-09-13T05:54:17.051Z,1588.00
2018-09-13T05:55:17.078Z,1540.00
2018-09-13T05:56:17.097Z,1548.00
2018-09-13T05:57:17.124Z,1552.00
2018-09-13T05:58:17.145Z,1700.00
2018-09-13T05:59:17.170Z,1688.00
2018-09-13T06:00:17.196Z,1620.00
2018-09-13T06:01:17.239Z,1556.00
2018-09-13T06:02:17.247Z,1560.00
2018-09-13T06:03:17.271Z,1548.00
2018-09-13T06:04:17.293Z,1600.00
2018-09-13T06:05:17.318Z,1780.00
2018-09-13T06:06:17.341Z,1820.00
2018-09-13T06:07:17.366Z,1884.00
2018-09-13T06:08:17.389Z,2080.00
2018-09-13T06:09:17.414Z,2148.00
2018-09-13T06:10:17.437Z,2576.00
2018-09-13T06:11:17.463Z,2620.00
2018-09-13T06:12:17.485Z,1948.00
2018-09-13T06:13:17.511Z,1880.00
2018-09-13T06:14:17.535Z,1932.00
2018-09-13T06:15:17.560Z,2208.00
2018-09-13T06:16:17.583Z,3816.00
2018-09-13T06:17:17.607Z,4524.00
2018-09-13T06:18:17.633Z,4572.00
2018-09-13T06:19:17.657Z,6024.00
2018-09-13T06:20:17.680Z,5104.00
2018-09-13T06:21:17.708Z,3328.00
2018-09-13T06:22:17.734Z,3112.00
2018-09-13T06:23:17.756Z,2860.00
2018-09-13T06:24:17.780Z,4424.00
2018-09-13T06:25:17.807Z,2444.00
2018-09-13T06:26:17.829Z,2312.00
2018-09-13T06:27:17.853Z,3256.00
2018-09-13T06:28:17.880Z,2644.00
2018-09-13T06:29:17.901Z,1976.00
2018-09-13T06:30:17.928Z,1736.00
2018-09-13T06:31:17.953Z,1616.00
2018-09-13T06:32:17.974Z,1556.00
2018-09-13T06:33:18.001Z,1512.00
2018-09-13T06:34:18.029Z,1472.00
2018-09-13T06:35:18.051Z,1468.00
2018-09-13T06:36:18.121Z,1484.00
2018-09-13T06:37:18.101Z,1492.00
2018-09-13T06:38:18.155Z,1508.00
2018-09-13T06:39:18.150Z,1516.00
2018-09-13T06:40:18.176Z,1556.00
2018-09-13T06:41:18.199Z,1564.00
2018-09-13T06:42:18.287Z,1568.00
2018-09-13T06:43:18.250Z,1596.00
2018-09-13T06:44:18.279Z,1688.00
2018-09-13T06:45:18.301Z,1740.00
2018-09-13T06:46:18.324Z,1772.00
2018-09-13T06:47:18.349Z,1760.00
2018-09-13T06:48:18.372Z,1744.00
2018-09-13T06:49:18.398Z,1744.00
2018-09-13T06:50:18.425Z,1732.00
2018-09-13T06:51:18.452Z,1724.00
2018-09-13T06:52:18.472Z,1712.00
2018-09-13T06:53:18.496Z,1716.00
2018-09-13T06:54:19.249Z,1720.00
2018-09-13T06:55:18.556Z,1752.00
2018-09-13T06:56:18.574Z,1784.00
2018-09-13T06:57:18.598Z,1848.00
2018-09-13T06:58:18.620Z,1856.00
2018-09-13T06:59:18.653Z,1908.00
2018-09-13T07:00:18.688Z,1944.00
2018-09-13T07:01:18.691Z,2272.00
2018-09-13T07:02:18.748Z,1824.00
2018-09-13T07:03:18.745Z,1792.00
2018-09-13T07:04:18.767Z,1924.00
2018-09-13T07:05:18.797Z,1832.00
2018-09-13T07:06:18.817Z,2224.00
2018-09-13T07:07:18.856Z,2372.00
2018-09-13T07:08:18.865Z,2504.00
2018-09-13T07:09:18.885Z,3116.00
2018-09-13T07:10:18.916Z,3036.00
2018-09-13T07:11:18.942Z,3300.00
2018-09-13T07:12:18.986Z,3248.00
2018-09-13T07:13:18.992Z,3204.00
2018-09-13T07:14:19.019Z,3156.00
2018-09-13T07:15:19.039Z,3088.00
2018-09-13T07:16:19.064Z,3020.00
2018-09-13T07:17:19.093Z,2948.00
2018-09-13T07:18:19.113Z,2884.00
2018-09-13T07:19:19.138Z,2832.00
2018-09-13T07:20:19.162Z,2780.00
2018-09-13T07:21:19.188Z,2712.00
2018-09-13T07:22:19.213Z,2636.00
2018-09-13T07:23:19.237Z,2576.00
2018-09-13T07:24:19.264Z,2532.00
2018-09-13T07:25:19.293Z,2488.00
2018-09-13T07:26:19.311Z,2448.00
2018-09-13T07:27:19.382Z,2400.00
2018-09-13T07:28:19.363Z,2364.00
2018-09-13T07:29:19.387Z,2332.00
2018-09-13T07:30:19.411Z,2304.00
2018-09-13T07:31:19.439Z,2288.00
2018-09-13T07:32:19.458Z,2264.00
2018-09-13T07:33:19.486Z,2244.00
2018-09-13T07:34:19.513Z,2228.00
2018-09-13T07:35:19.536Z,2212.00
2018-09-13T07:36:19.560Z,2200.00
2018-09-13T07:37:19.585Z,2192.00
2018-09-13T07:38:19.610Z,2184.00
2018-09-13T07:39:19.635Z,2180.00
2018-09-13T07:40:19.660Z,2172.00
2018-09-13T07:41:19.684Z,2168.00
2018-09-13T07:42:19.770Z,2160.00
2018-09-13T07:43:19.736Z,2148.00
2018-09-13T07:44:19.762Z,2140.00
2018-09-13T07:45:19.785Z,2132.00
2018-09-13T07:46:19.811Z,2120.00
2018-09-13T07:47:19.836Z,2112.00
2018-09-13T07:48:19.859Z,2104.00
2018-09-13T07:49:19.912Z,2096.00
2018-09-13T07:50:19.909Z,2092.00
2018-09-13T07:51:19.935Z,2088.00
2018-09-13T07:52:19.960Z,2084.00
2018-09-13T07:53:19.983Z,2076.00
2018-09-13T07:54:20.015Z,2072.00
2018-09-13T07:55:20.036Z,2072.00
2018-09-13T07:56:20.160Z,2068.00
2018-09-13T07:57:20.085Z,2064.00
2018-09-13T07:58:20.111Z,2036.00
2018-09-13T07:59:20.133Z,1936.00
2018-09-13T08:00:20.158Z,1872.00
2018-09-13T08:01:20.182Z,1884.00
2018-09-13T08:02:21.170Z,1944.00
2018-09-13T08:03:20.241Z,2016.00
2018-09-13T08:04:20.261Z,2132.00
2018-09-13T08:05:20.282Z,2180.00
2018-09-13T08:06:20.328Z,2212.00
2018-09-13T08:07:20.336Z,2160.00
2018-09-13T08:08:21.162Z,2108.00
2018-09-13T08:09:20.397Z,2080.00
2018-09-13T08:10:20.406Z,2024.00
2018-09-13T08:11:20.463Z,2052.00
2018-09-13T08:12:20.473Z,2144.00
2018-09-13T08:13:20.480Z,2172.00
2018-09-13T08:14:20.536Z,2252.00
2018-09-13T08:15:20.543Z,2292.00
2018-09-13T08:16:20.555Z,2300.00
2018-09-13T08:17:20.609Z,2308.00
2018-09-13T08:18:21.176Z,2316.00
2018-09-13T08:19:21.184Z,2324.00
2018-09-13T08:20:20.677Z,2320.00
2018-09-13T08:21:20.734Z,2304.00
2018-09-13T08:22:20.705Z,2248.00
2018-09-13T08:23:20.730Z,2200.00
2018-09-13T08:24:20.762Z,2184.00
2018-09-13T08:25:20.813Z,2148.00
2018-09-13T08:26:20.836Z,2272.00
2018-09-13T08:27:20.885Z,2276.00
2018-09-13T08:28:20.886Z,2260.00
2018-09-13T08:29:20.881Z,2292.00
2018-09-13T08:30:20.906Z,2284.00
2018-09-13T08:31:20.965Z,2200.00
2018-09-13T08:32:20.965Z,2132.00
2018-09-13T08:33:21.060Z,2088.00
2018-09-13T08:34:21.030Z,2016.00
2018-09-13T08:35:21.039Z,1992.00
2018-09-13T08:36:22.667Z,1976.00
2018-09-13T08:37:21.101Z,1936.00
2018-09-13T08:38:21.105Z,1892.00
2018-09-13T08:39:21.168Z,1876.00
2018-09-13T08:40:21.278Z,1860.00
2018-09-13T08:41:21.182Z,1844.00
2018-09-13T08:42:21.236Z,1936.00
2018-09-13T08:43:21.246Z,1980.00
2018-09-13T08:44:21.254Z,1948.00
2018-09-13T08:45:21.309Z,1900.00
2018-09-13T08:46:21.320Z,1860.00
2018-09-13T08:47:22.193Z,1820.00
2018-09-13T08:48:21.381Z,1772.00
2018-09-13T08:49:21.389Z,1728.00
2018-09-13T08:50:21.406Z,1696.00
2018-09-13T08:51:21.454Z,1672.00
2018-09-13T08:52:21.461Z,1652.00
2018-09-13T08:53:22.186Z,1652.00
2018-09-13T08:54:21.524Z,1676.00
2018-09-13T08:55:21.531Z,1708.00
2018-09-13T08:56:21.589Z,1756.00
2018-09-13T08:57:21.597Z,1792.00
2018-09-13T08:58:21.607Z,1812.00
2018-09-13T08:59:21.661Z,1824.00
2018-09-13T09:00:21.666Z,1848.00
2018-09-13T09:01:21.683Z,1868.00
2018-09-13T09:02:21.708Z,1880.00
2018-09-13T09:03:21.730Z,1872.00
2018-09-13T09:04:21.759Z,1840.00
2018-09-13T09:05:21.778Z,1808.00
2018-09-13T09:06:21.850Z,1784.00
2018-09-13T09:07:21.830Z,1784.00
2018-09-13T09:08:21.862Z,1820.00
2018-09-13T09:09:21.882Z,1880.00
2018-09-13T09:10:21.909Z,1964.00
2018-09-13T09:11:21.933Z,2072.00
2018-09-13T09:12:21.960Z,2196.00
2018-09-13T09:13:21.981Z,2320.00
2018-09-13T09:14:22.008Z,2424.00
2018-09-13T09:15:22.036Z,2488.00
2018-09-13T09:16:22.061Z,2516.00
2018-09-13T09:17:22.079Z,2556.00
2018-09-13T09:18:22.148Z,2560.00
2018-09-13T09:19:22.129Z,2560.00
2018-09-13T09:20:22.154Z,2544.00
2018-09-13T09:21:22.189Z,2532.00
2018-09-13T09:22:22.209Z,2516.00
2018-09-13T09:23:22.233Z,2500.00
2018-09-13T09:24:22.259Z,2496.00
2018-09-13T09:25:22.284Z,2496.00
2018-09-13T09:26:22.308Z,2504.00
2018-09-13T09:27:22.390Z,2532.00
2018-09-13T09:28:22.357Z,2576.00
2018-09-13T09:29:22.415Z,2616.00
2018-09-13T09:30:22.406Z,2640.00
2018-09-13T09:31:22.436Z,2648.00
2018-09-13T09:32:22.460Z,2636.00
2018-09-13T09:33:22.487Z,2612.00
2018-09-13T09:34:22.508Z,2580.00
2018-09-13T09:35:22.533Z,2552.00
2018-09-13T09:36:22.560Z,2548.00
2018-09-13T09:37:22.582Z,2552.00
2018-09-13T09:38:22.613Z,2548.00
2018-09-13T09:39:22.638Z,2548.00
2018-09-13T09:40:22.725Z,2528.00
2018-09-13T09:41:22.683Z,2512.00
2018-09-13T09:42:22.709Z,2492.00
2018-09-13T09:43:22.743Z,2492.00
2018-09-13T09:44:22.880Z,2536.00
2018-09-13T09:45:22.786Z,2704.00
2018-09-13T09:46:22.813Z,2600.00
2018-09-13T09:47:22.840Z,2444.00
2018-09-13T09:48:22.866Z,2280.00
2018-09-13T09:49:22.892Z,2104.00
2018-09-13T09:50:22.978Z,1952.00
2018-09-13T09:51:22.931Z,1848.00
2018-09-13T09:52:23.031Z,1764.00
2018-09-13T09:53:22.990Z,1460.00
2018-09-13T09:54:23.015Z,1272.00
2018-09-13T09:55:23.040Z,1292.00
2018-09-13T09:56:23.062Z,1372.00
2018-09-13T09:57:23.089Z,1652.00
2018-09-13T09:58:23.117Z,1320.00
2018-09-13T09:59:23.141Z,1388.00
2018-09-13T10:00:23.168Z,1656.00
2018-09-13T10:01:23.191Z,1680.00
2018-09-13T10:02:23.217Z,1684.00
2018-09-13T10:03:23.244Z,1676.00
2018-09-13T10:04:23.318Z,1668.00
2018-09-13T10:05:23.293Z,1640.00
2018-09-13T10:06:23.320Z,1628.00
2018-09-13T10:07:23.344Z,1624.00
2018-09-13T10:08:23.367Z,1644.00
2018-09-13T10:09:23.391Z,1652.00
2018-09-13T10:10:23.421Z,1648.00
2018-09-13T10:11:23.444Z,1640.00
2018-09-13T10:12:23.469Z,1624.00
2018-09-13T10:13:23.494Z,1600.00
2018-09-13T10:14:23.522Z,1596.00
2018-09-13T10:15:23.544Z,1600.00
2018-09-13T10:16:23.616Z,1600.00
2018-09-13T10:17:23.631Z,1600.00
2018-09-13T10:18:23.622Z,1596.00
2018-09-13T10:19:23.648Z,1592.00
2018-09-13T10:20:23.685Z,1580.00
2018-09-13T10:21:23.694Z,1576.00
2018-09-13T10:22:23.724Z,1576.00
2018-09-13T10:23:23.749Z,1572.00
2018-09-13T10:24:23.772Z,1576.00
2018-09-13T10:25:23.795Z,1572.00
2018-09-13T10:26:23.820Z,1572.00
2018-09-13T10:27:23.842Z,1576.00
2018-09-13T10:28:23.874Z,1572.00
2018-09-13T10:29:23.979Z,1572.00
2018-09-13T10:30:23.921Z,1572.00
2018-09-13T10:31:23.949Z,1576.00
2018-09-13T10:32:23.971Z,1580.00
2018-09-13T10:33:24.000Z,1580.00
2018-09-13T10:34:24.028Z,1580.00
2018-09-13T10:35:24.042Z,1572.00
2018-09-13T10:36:24.073Z,1572.00
2018-09-13T10:37:24.106Z,1568.00
2018-09-13T10:38:24.123Z,1564.00
2018-09-13T10:39:24.145Z,1560.00
2018-09-13T10:40:24.172Z,1556.00
2018-09-13T10:41:24.285Z,1564.00
2018-09-13T10:42:24.225Z,1576.00
2018-09-13T10:43:24.246Z,1588.00
2018-09-13T10:44:24.269Z,1604.00
2018-09-13T10:45:24.300Z,1612.00
2018-09-13T10:46:24.326Z,1612.00
2018-09-13T10:47:24.351Z,1624.00
2018-09-13T10:48:24.372Z,1628.00
2018-09-13T10:49:24.404Z,1644.00
2018-09-13T10:50:24.483Z,1656.00
2018-09-13T10:51:24.451Z,1676.00
2018-09-13T10:52:24.524Z,1680.00
2018-09-13T10:53:24.500Z,1692.00
2018-09-13T10:54:24.572Z,1712.00
2018-09-13T10:55:24.649Z,1728.00
2018-09-13T10:56:24.576Z,1736.00
2018-09-13T10:57:24.601Z,1748.00
2018-09-13T10:58:24.632Z,1748.00
2018-09-13T10:59:24.648Z,1760.00
2018-09-13T11:00:24.670Z,1776.00
2018-09-13T11:01:24.697Z,1784.00
2018-09-13T11:02:24.725Z,1788.00
2018-09-13T11:03:24.752Z,1788.00
2018-09-13T11:04:24.844Z,1780.00
2018-09-13T11:05:24.798Z,1780.00
2018-09-13T11:06:24.834Z,1772.00
2018-09-13T11:07:24.852Z,1800.00
2018-09-13T11:08:24.880Z,1772.00
2018-09-13T11:09:24.900Z,1384.00
2018-09-13T11:10:24.941Z,1284.00
2018-09-13T11:11:25.060Z,1308.00
2018-09-13T11:12:24.974Z,1348.00
2018-09-13T11:13:25.011Z,1404.00
2018-09-13T11:14:25.027Z,1476.00
2018-09-13T11:15:25.049Z,1520.00
2018-09-13T11:16:25.071Z,1532.00
2018-09-13T11:17:25.098Z,1456.00
2018-09-13T11:18:25.122Z,1448.00
2018-09-13T11:19:25.152Z,1428.00
2018-09-13T11:20:25.175Z,1388.00
2018-09-13T11:21:25.200Z,1396.00
2018-09-13T11:22:25.225Z,1392.00
2018-09-13T11:23:25.254Z,1352.00
2018-09-13T11:24:25.283Z,1344.00
2018-09-13T11:25:25.306Z,1300.00
2018-09-13T11:26:25.326Z,1248.00
2018-09-13T11:27:25.354Z,1252.00
2018-09-13T11:28:25.375Z,1264.00
2018-09-13T11:29:25.401Z,1288.00
2018-09-13T11:30:25.445Z,1320.00
2018-09-13T11:31:25.461Z,1300.00
2018-09-13T11:32:25.476Z,1280.00
2018-09-13T11:33:25.502Z,1244.00
2018-09-13T11:34:25.527Z,1216.00
2018-09-13T11:35:25.556Z,1244.00
2018-09-13T11:36:25.608Z,1584.00
2018-09-13T11:37:25.604Z,1512.00
2018-09-13T11:38:25.626Z,1264.00
2018-09-13T11:39:25.653Z,1268.00
2018-09-13T11:40:25.808Z,1280.00
2018-09-13T11:41:25.699Z,1268.00
2018-09-13T11:42:25.725Z,1248.00
2018-09-13T11:43:25.753Z,1244.00
2018-09-13T11:44:25.777Z,1256.00
2018-09-13T11:45:25.801Z,1244.00
2018-09-13T11:46:25.824Z,1224.00
2018-09-13T11:47:25.851Z,1228.00
2018-09-13T11:48:25.884Z,1232.00
2018-09-13T11:49:25.904Z,1244.00
2018-09-13T11:50:25.926Z,1244.00
2018-09-13T11:51:25.952Z,1240.00
2018-09-13T11:52:25.976Z,1240.00
2018-09-13T11:53:26.003Z,1252.00
2018-09-13T11:54:26.028Z,1264.00
2018-09-13T11:55:26.049Z,1260.00
2018-09-13T11:56:26.080Z,1256.00
2018-09-13T11:57:26.099Z,1272.00
2018-09-13T11:58:26.125Z,1364.00
2018-09-13T11:59:26.153Z,1684.00
2018-09-13T12:00:26.176Z,1736.00
2018-09-13T12:01:26.220Z,1724.00
2018-09-13T12:02:26.234Z,1732.00
2018-09-13T12:03:26.256Z,1520.00
2018-09-13T12:04:26.281Z,1508.00
2018-09-13T12:05:26.314Z,1348.00
2018-09-13T12:06:26.326Z,1440.00
2018-09-13T12:07:26.349Z,1276.00
2018-09-13T12:08:27.263Z,1280.00
2018-09-13T12:09:26.407Z,1292.00
2018-09-13T12:10:26.425Z,1304.00
2018-09-13T12:11:26.447Z,1292.00
2018-09-13T12:12:26.490Z,1296.00
2018-09-13T12:13:26.501Z,1276.00
2018-09-13T12:14:26.525Z,1324.00
2018-09-13T12:15:26.556Z,1348.00
2018-09-13T12:16:26.575Z,1248.00
2018-09-13T12:17:26.602Z,1220.00
2018-09-13T12:18:26.643Z,1220.00
2018-09-13T12:19:26.651Z,1196.00
2018-09-13T12:20:26.677Z,1200.00
2018-09-13T12:21:26.701Z,1212.00
2018-09-13T12:22:26.786Z,1248.00
2018-09-13T12:23:26.752Z,1292.00
2018-09-13T12:24:26.775Z,1340.00
2018-09-13T12:25:26.808Z,1384.00
2018-09-13T12:26:26.827Z,1420.00
2018-09-13T12:27:26.907Z,1424.00
2018-09-13T12:28:26.878Z,1384.00
2018-09-13T12:29:26.918Z,1340.00
2018-09-13T12:30:26.926Z,1312.00
2018-09-13T12:31:26.952Z,1292.00
2018-09-13T12:32:26.993Z,1292.00
2018-09-13T12:33:27.007Z,1292.00